Time;durP1;ratioP1;P1;durP2;ratioP2;P2;SDS_P1;SDS_P2;PMS_P1;PMS_P2;Temp;Humidity;BMP_temperature;BMP_pressure;BME280_temperature;BME280_humidity;BME280_pressure;Samples;Min_cycle;Max_cycle;Signal;HPM_P1;HPM_P2
2024/01/05 00:00:51;;;;;;;1.17;1.10;;;;;4.40;94867.00;;;;5053205;28;20197;-59
2024/01/05 00:03:19;;;;;;;0.80;0.80;;;;;4.40;94872.00;;;;5052981;28;20265;-61
2024/01/05 00:05:47;;;;;;;1.23;1.23;;;;;4.40;94866.00;;;;5052690;28;20220;-60
2024/01/05 00:08:14;;;;;;;0.90;0.90;;;;;4.40;94866.00;;;;5052684;28;20621;-60
2024/01/05 00:10:42;;;;;;;1.27;1.27;;;;;4.40;94876.00;;;;5052789;28;20280;-60
2024/01/05 00:13:09;;;;;;;1.17;1.17;;;;;4.40;94868.00;;;;5052762;28;20730;-60
2024/01/05 00:15:40;;;;;;;2.07;1.23;;;;;4.30;94870.00;;;;5052747;28;20230;-59
2024/01/05 00:18:08;;;;;;;1.57;1.47;;;;;4.30;94862.00;;;;5052618;28;20651;-59
2024/01/05 00:20:35;;;;;;;1.77;1.67;;;;;4.30;94858.00;;;;5052733;28;20196;-59
2024/01/05 00:23:03;;;;;;;1.23;1.17;;;;;4.40;94859.00;;;;5052517;28;20733;-59
2024/01/05 00:25:30;;;;;;;1.23;0.77;;;;;4.40;94859.00;;;;5052459;28;20296;-59
2024/01/05 00:27:58;;;;;;;0.60;0.60;;;;;4.60;94866.00;;;;5052554;28;20196;-60
2024/01/05 00:30:25;;;;;;;1.37;1.27;;;;;4.60;94862.00;;;;5052399;28;20184;-59
2024/01/05 00:32:54;;;;;;;1.03;0.83;;;;;4.60;94864.00;;;;5052345;28;20578;-59
2024/01/05 00:35:21;;;;;;;1.00;0.97;;;;;4.40;94864.00;;;;5052392;28;20199;-60
2024/01/05 00:37:49;;;;;;;0.73;0.73;;;;;4.30;94867.00;;;;5052500;28;20727;-59
2024/01/05 00:40:16;;;;;;;1.00;1.00;;;;;4.30;94869.00;;;;5052286;28;20203;-59
2024/01/05 00:42:45;;;;;;;0.80;0.80;;;;;4.10;94859.00;;;;5052536;28;20725;-59
2024/01/05 00:45:12;;;;;;;1.03;1.03;;;;;4.40;94864.00;;;;5052504;28;20237;-59
2024/01/05 00:47:40;;;;;;;0.80;0.80;;;;;4.40;94854.00;;;;5052562;28;20193;-60
2024/01/05 00:50:09;;;;;;;0.87;0.83;;;;;4.10;94864.00;;;;5054189;28;20203;-60
2024/01/05 00:52:36;;;;;;;1.73;1.63;;;;;4.20;94866.00;;;;5055825;28;20211;-60
2024/01/05 00:55:04;;;;;;;0.83;0.83;;;;;4.10;94842.00;;;;5055840;28;20188;-58
2024/01/05 00:57:32;;;;;;;1.37;1.13;;;;;4.10;94835.00;;;;5055877;28;20191;-59
2024/01/05 00:59:59;;;;;;;0.63;0.63;;;;;4.20;94842.00;;;;5055994;28;20677;-59
2024/01/05 01:02:27;;;;;;;1.00;1.00;;;;;4.20;94841.00;;;;5055673;28;20559;-59
2024/01/05 01:04:54;;;;;;;0.70;0.70;;;;;4.10;94841.00;;;;5055563;28;20212;-59
2024/01/05 01:07:23;;;;;;;0.80;0.80;;;;;4.10;94847.00;;;;5055649;28;20318;-59
2024/01/05 01:09:50;;;;;;;0.80;0.80;;;;;4.20;94855.00;;;;5055551;28;20196;-59
2024/01/05 01:12:18;;;;;;;1.13;1.10;;;;;4.10;94847.00;;;;5055497;28;20578;-59
2024/01/05 01:14:48;;;;;;;1.33;1.27;;;;;4.10;94857.00;;;;5055563;28;20212;-60
2024/01/05 01:17:16;;;;;;;0.60;0.60;;;;;3.90;94854.00;;;;5055472;28;20244;-60
2024/01/05 01:19:43;;;;;;;1.70;1.13;;;;;4.10;94849.00;;;;5055357;28;20560;-60
2024/01/05 01:22:10;;;;;;;0.93;0.93;;;;;4.30;94838.00;;;;5055287;28;20216;-60
2024/01/05 01:24:39;;;;;;;1.03;1.00;;;;;4.40;94830.00;;;;5056260;28;20201;-60
2024/01/05 01:27:07;;;;;;;1.43;1.33;;;;;4.30;94824.00;;;;5055248;28;20201;-60
2024/01/05 01:29:34;;;;;;;0.70;0.70;;;;;4.50;94809.00;;;;5055476;28;20654;-59
2024/01/05 01:32:02;;;;;;;1.03;1.03;;;;;4.50;94817.00;;;;5055058;28;20219;-59
2024/01/05 01:34:29;;;;;;;0.77;0.77;;;;;4.30;94813.00;;;;5055101;28;20193;-59
2024/01/05 01:36:56;;;;;;;0.87;0.87;;;;;4.30;94804.00;;;;5055101;28;20526;-59
2024/01/05 01:39:24;;;;;;;1.20;1.20;;;;;4.20;94789.00;;;;5055765;28;20207;-59
2024/01/05 01:41:53;;;;;;;0.67;0.67;;;;;4.20;94788.00;;;;5054912;28;20684;-59
2024/01/05 01:44:20;;;;;;;2.10;1.63;;;;;4.00;94806.00;;;;5054928;28;20196;-59
2024/01/05 01:46:48;;;;;;;0.80;0.80;;;;;3.80;94807.00;;;;5054819;28;20209;-59
2024/01/05 01:49:16;;;;;;;0.80;0.80;;;;;3.60;94800.00;;;;5054934;28;20204;-59
2024/01/05 01:51:45;;;;;;;1.17;1.13;;;;;3.70;94791.00;;;;5054711;28;20216;-60
2024/01/05 01:54:12;;;;;;;3.60;1.50;;;;;3.60;94787.00;;;;5054809;28;20352;-60
2024/01/05 01:56:40;;;;;;;1.00;1.00;;;;;3.60;94780.00;;;;5054726;28;20184;-59
2024/01/05 01:59:09;;;;;;;3.53;1.20;;;;;3.70;94783.00;;;;5054966;28;20196;-60
2024/01/05 02:01:37;;;;;;;1.37;1.37;;;;;3.50;94782.00;;;;5054547;28;20193;-59
2024/01/05 02:04:05;;;;;;;0.73;0.73;;;;;3.60;94772.00;;;;5054606;28;20193;-59
2024/01/05 02:06:33;;;;;;;1.17;1.13;;;;;3.50;94780.00;;;;5054450;28;20227;-59
2024/01/05 02:09:01;;;;;;;0.67;0.67;;;;;3.60;94781.00;;;;5054691;28;20196;-58
2024/01/05 02:11:28;;;;;;;1.53;1.47;;;;;3.60;94770.00;;;;5054390;28;20223;-58
2024/01/05 02:13:56;;;;;;;0.90;0.90;;;;;3.70;94769.00;;;;5054432;28;20299;-58
2024/01/05 02:16:25;;;;;;;0.90;0.90;;;;;3.60;94769.00;;;;5054754;28;20196;-59
2024/01/05 02:18:52;;;;;;;0.80;0.80;;;;;3.50;94755.00;;;;5054863;28;20193;-59
2024/01/05 02:21:25;;;;;;;10.30;2.27;;;;;3.60;94770.00;;;;5054116;28;20224;-59
2024/01/05 02:23:54;;;;;;;1.10;1.10;;;;;3.70;94753.00;;;;5054226;28;20529;-59
2024/01/05 02:26:22;;;;;;;1.33;1.23;;;;;3.50;94761.00;;;;5054116;28;20220;-59
2024/01/05 02:28:49;;;;;;;1.00;1.00;;;;;3.60;94765.00;;;;5054411;28;20192;-60
2024/01/05 02:31:16;;;;;;;0.77;0.77;;;;;3.70;94772.00;;;;5054313;28;20218;-60
2024/01/05 02:33:44;;;;;;;1.90;1.40;;;;;3.80;94772.00;;;;5053959;28;20718;-60
2024/01/05 02:36:11;;;;;;;0.60;0.60;;;;;3.70;94772.00;;;;5053943;28;20190;-59
2024/01/05 02:38:39;;;;;;;1.40;1.10;;;;;3.70;94780.00;;;;5054364;28;20648;-60
2024/01/05 02:41:10;;;;;;;0.63;0.63;;;;;3.70;94772.00;;;;5053795;28;20192;-60
2024/01/05 02:43:37;;;;;;;0.60;0.60;;;;;3.80;94764.00;;;;5053754;28;20216;-60
2024/01/05 02:46:05;;;;;;;0.70;0.70;;;;;3.60;94759.00;;;;5053682;28;20216;-59
2024/01/05 02:48:33;;;;;;;0.97;0.97;;;;;3.50;94745.00;;;;5053735;28;20193;-60
2024/01/05 02:51:00;;;;;;;4.20;1.80;;;;;3.50;94741.00;;;;5055434;28;20195;-59
2024/01/05 02:53:27;;;;;;;0.67;0.67;;;;;3.50;94736.00;;;;5056658;28;20291;-59
2024/01/05 02:55:55;;;;;;;1.10;1.03;;;;;3.30;94734.00;;;;5056094;28;20196;-59
2024/01/05 02:58:24;;;;;;;0.60;0.60;;;;;3.30;94741.00;;;;5054098;28;20199;-59
2024/01/05 03:00:51;;;;;;;1.37;1.27;;;;;3.30;94738.00;;;;5054112;28;20552;-59
2024/01/05 03:03:19;;;;;;;1.57;1.47;;;;;3.20;94729.00;;;;5054251;28;20703;-59
2024/01/05 03:05:47;;;;;;;0.97;0.97;;;;;3.30;94741.00;;;;5053357;28;20255;-59
2024/01/05 03:08:15;;;;;;;1.67;1.50;;;;;3.50;94732.00;;;;5053483;28;20196;-59
2024/01/05 03:10:42;;;;;;;0.60;0.60;;;;;3.70;94732.00;;;;5053437;28;20211;-59
2024/01/05 03:13:09;;;;;;;1.33;1.07;;;;;3.80;94716.00;;;;5053205;28;20219;-59
2024/01/05 03:15:38;;;;;;;1.83;1.73;;;;;3.90;94718.00;;;;5053218;28;20188;-60
2024/01/05 03:18:06;;;;;;;0.93;0.93;;;;;3.90;94717.00;;;;5053607;28;20645;-60
2024/01/05 03:20:33;;;;;;;0.90;0.90;;;;;4.00;94705.00;;;;5053517;28;20200;-59
2024/01/05 03:23:00;;;;;;;0.80;0.80;;;;;4.00;94703.00;;;;5053804;28;20243;-60
2024/01/05 03:25:28;;;;;;;0.80;0.80;;;;;4.00;94699.00;;;;5053104;28;20227;-60
2024/01/05 03:27:55;;;;;;;0.80;0.80;;;;;4.00;94696.00;;;;5053339;28;20193;-60
2024/01/05 03:30:23;;;;;;;0.73;0.73;;;;;4.00;94694.00;;;;5051744;28;20205;-60
2024/01/05 03:32:51;;;;;;;0.70;0.70;;;;;4.10;94703.00;;;;5053069;28;20217;-60
2024/01/05 03:35:19;;;;;;;0.80;0.80;;;;;4.10;94692.00;;;;5053485;28;20657;-59
2024/01/05 03:37:48;;;;;;;1.13;1.07;;;;;4.00;94698.00;;;;5052950;28;20667;-59
2024/01/05 03:40:15;;;;;;;2.00;0.80;;;;;4.00;94703.00;;;;5052786;28;20563;-59
2024/01/05 03:42:43;;;;;;;0.80;0.80;;;;;4.10;94701.00;;;;5052459;28;20214;-59
2024/01/05 03:45:10;;;;;;;1.13;1.07;;;;;4.00;94701.00;;;;5052988;28;20613;-60
2024/01/05 03:47:38;;;;;;;1.30;1.20;;;;;4.10;94696.00;;;;5052732;28;20691;-60
2024/01/05 03:50:08;;;;;;;2.33;1.13;;;;;4.00;94715.00;;;;5052847;28;20191;-59
2024/01/05 03:52:36;;;;;;;0.77;0.77;;;;;4.20;94719.00;;;;5052740;28;20270;-59
2024/01/05 03:55:03;;;;;;;5.50;1.77;;;;;4.10;94707.00;;;;5053320;28;20199;-59
2024/01/05 03:57:31;;;;;;;0.70;0.70;;;;;4.10;94702.00;;;;5052774;28;20195;-58
2024/01/05 03:59:58;;;;;;;0.93;0.93;;;;;4.10;94691.00;;;;5052742;28;20690;-58
2024/01/05 04:02:25;;;;;;;0.93;0.93;;;;;4.30;94675.00;;;;5052634;28;20217;-59
2024/01/05 04:04:53;;;;;;;0.60;0.60;;;;;4.40;94670.00;;;;5052940;28;20544;-59
2024/01/05 04:07:22;;;;;;;0.90;0.90;;;;;4.20;94680.00;;;;5052600;28;20227;-59
2024/01/05 04:09:50;;;;;;;0.77;0.77;;;;;4.20;94682.00;;;;5052652;28;20247;-59
2024/01/05 04:12:18;;;;;;;1.23;1.13;;;;;4.10;94683.00;;;;5052571;28;20235;-59
2024/01/05 04:14:46;;;;;;;1.03;1.03;;;;;4.10;94666.00;;;;5052580;28;20197;-59
2024/01/05 04:17:13;;;;;;;1.63;1.53;;;;;4.10;94676.00;;;;5052524;28;20191;-59
2024/01/05 04:19:40;;;;;;;1.00;1.00;;;;;4.00;94665.00;;;;5051226;28;20200;-59
2024/01/05 04:22:08;;;;;;;0.77;0.77;;;;;4.00;94661.00;;;;5052766;28;20208;-59
2024/01/05 04:24:38;;;;;;;0.90;0.90;;;;;4.00;94673.00;;;;5055338;28;20194;-59
2024/01/05 04:27:06;;;;;;;0.60;0.60;;;;;4.00;94669.00;;;;5056523;28;20223;-59
2024/01/05 04:29:33;;;;;;;0.70;0.70;;;;;4.00;94668.00;;;;5056563;28;20656;-58
2024/01/05 04:32:01;;;;;;;0.70;0.70;;;;;4.00;94662.00;;;;5056311;28;20219;-58
2024/01/05 04:34:28;;;;;;;0.80;0.80;;;;;3.90;94661.00;;;;5056605;28;20196;-58
2024/01/05 04:36:56;;;;;;;0.70;0.70;;;;;3.90;94666.00;;;;5056208;28;20197;-58
2024/01/05 04:39:23;;;;;;;1.43;1.33;;;;;3.90;94661.00;;;;5056147;28;20199;-58
2024/01/05 04:41:52;;;;;;;0.90;0.90;;;;;3.90;94652.00;;;;5056006;28;20308;-59
2024/01/05 04:44:19;;;;;;;0.80;0.80;;;;;3.80;94650.00;;;;5056305;28;20210;-59
2024/01/05 04:46:47;;;;;;;0.97;0.97;;;;;3.80;94649.00;;;;5055984;28;20218;-59
2024/01/05 04:49:14;;;;;;;0.70;0.70;;;;;3.80;94655.00;;;;5055969;28;20192;-59
2024/01/05 04:51:42;;;;;;;0.73;0.73;;;;;3.80;94651.00;;;;5056109;28;20242;-59
2024/01/05 04:54:09;;;;;;;0.80;0.80;;;;;3.70;94646.00;;;;5055932;28;20204;-58
2024/01/05 04:56:36;;;;;;;0.80;0.80;;;;;3.70;94637.00;;;;5055879;28;20192;-58
2024/01/05 04:59:09;;;;;;;2.50;1.27;;;;;3.80;94637.00;;;;5055863;28;20212;-58
2024/01/05 05:01:36;;;;;;;0.80;0.80;;;;;3.60;94648.00;;;;5055977;28;20191;-58
2024/01/05 05:04:04;;;;;;;1.60;1.50;;;;;3.70;94645.00;;;;5055739;28;20660;-58
2024/01/05 05:06:31;;;;;;;1.27;1.17;;;;;3.70;94642.00;;;;5055708;28;20226;-58
2024/01/05 05:08:59;;;;;;;0.70;0.70;;;;;3.80;94646.00;;;;5055658;28;20675;-58
2024/01/05 05:11:26;;;;;;;0.70;0.70;;;;;3.90;94640.00;;;;5055807;28;20193;-58
2024/01/05 05:13:54;;;;;;;1.00;1.00;;;;;3.90;94639.00;;;;5055544;28;20199;-60
2024/01/05 05:16:22;;;;;;;0.60;0.60;;;;;3.80;94646.00;;;;5055578;28;20204;-59
2024/01/05 05:18:50;;;;;;;0.70;0.70;;;;;3.80;94644.00;;;;5055446;28;20196;-59
2024/01/05 05:21:17;;;;;;;0.70;0.70;;;;;3.80;94647.00;;;;5055367;28;20208;-59
2024/01/05 05:23:45;;;;;;;0.80;0.80;;;;;3.90;94644.00;;;;5055331;28;20205;-59
2024/01/05 05:26:12;;;;;;;0.80;0.80;;;;;3.80;94647.00;;;;5055308;28;20225;-59
2024/01/05 05:28:40;;;;;;;1.03;0.90;;;;;3.90;94650.00;;;;5055327;28;20196;-59
2024/01/05 05:31:07;;;;;;;0.70;0.70;;;;;3.80;94647.00;;;;5055604;28;20192;-59
2024/01/05 05:33:36;;;;;;;0.80;0.80;;;;;3.70;94650.00;;;;5055179;28;20315;-58
2024/01/05 05:36:03;;;;;;;0.80;0.80;;;;;3.70;94644.00;;;;5054779;28;20559;-58
2024/01/05 05:38:31;;;;;;;0.77;0.77;;;;;3.60;94633.00;;;;5055168;28;20192;-59
2024/01/05 05:40:58;;;;;;;1.00;1.00;;;;;3.70;94640.00;;;;5055061;28;20379;-59
2024/01/05 05:43:26;;;;;;;0.60;0.60;;;;;3.70;94622.00;;;;5055037;28;20216;-59
2024/01/05 05:45:53;;;;;;;0.60;0.60;;;;;3.70;94615.00;;;;5055052;28;20193;-58
2024/01/05 05:48:20;;;;;;;1.40;1.07;;;;;3.70;94609.00;;;;5055565;28;20651;-58
2024/01/05 05:50:49;;;;;;;0.70;0.70;;;;;3.80;94617.00;;;;5055455;28;20196;-58
2024/01/05 05:53:17;;;;;;;1.10;1.10;;;;;3.90;94618.00;;;;5054886;28;20235;-58
2024/01/05 05:55:44;;;;;;;0.80;0.80;;;;;3.80;94622.00;;;;5055000;28;20661;-58
2024/01/05 05:58:11;;;;;;;0.70;0.70;;;;;3.70;94611.00;;;;5054849;28;20199;-58
2024/01/05 06:00:39;;;;;;;0.60;0.60;;;;;3.70;94615.00;;;;5054803;28;20199;-58
2024/01/05 06:03:06;;;;;;;0.77;0.77;;;;;3.70;94609.00;;;;5054845;28;20212;-58
2024/01/05 06:05:34;;;;;;;0.70;0.70;;;;;3.60;94607.00;;;;5054855;28;20232;-58
2024/01/05 06:08:03;;;;;;;0.60;0.60;;;;;3.60;94625.00;;;;5054438;28;20216;-58
2024/01/05 06:10:30;;;;;;;1.27;1.17;;;;;3.50;94619.00;;;;5055045;28;20684;-58
2024/01/05 06:12:58;;;;;;;0.73;0.73;;;;;3.40;94627.00;;;;5054356;28;20212;-58
2024/01/05 06:15:25;;;;;;;1.30;1.20;;;;;3.50;94624.00;;;;5054458;28;20219;-59
2024/01/05 06:17:53;;;;;;;0.90;0.90;;;;;3.40;94628.00;;;;5054416;28;20196;-59
2024/01/05 06:20:20;;;;;;;1.53;1.53;;;;;3.40;94642.00;;;;5054324;28;20199;-60
2024/01/05 06:22:47;;;;;;;0.83;0.83;;;;;3.30;94648.00;;;;5054120;28;20208;-58
2024/01/05 06:25:16;;;;;;;1.17;1.17;;;;;3.20;94644.00;;;;5054161;28;20199;-58
2024/01/05 06:27:44;;;;;;;0.60;0.60;;;;;3.30;94650.00;;;;5054177;28;20212;-58
2024/01/05 06:30:11;;;;;;;0.77;0.77;;;;;3.20;94656.00;;;;5054629;28;20671;-58
2024/01/05 06:32:39;;;;;;;1.17;1.13;;;;;3.30;94649.00;;;;5053978;28;20212;-58
2024/01/05 06:35:07;;;;;;;1.63;0.93;;;;;3.40;94651.00;;;;5054097;28;20200;-58
2024/01/05 06:37:35;;;;;;;1.03;1.03;;;;;3.40;94639.00;;;;5054367;28;20188;-58
2024/01/05 06:40:03;;;;;;;0.87;0.87;;;;;3.40;94634.00;;;;5054236;28;20195;-58
2024/01/05 06:42:31;;;;;;;0.97;0.97;;;;;3.50;94629.00;;;;5053997;28;20208;-59
2024/01/05 06:44:58;;;;;;;0.70;0.70;;;;;3.50;94635.00;;;;5053882;28;20192;-59
2024/01/05 06:47:27;;;;;;;0.70;0.70;;;;;3.50;94653.00;;;;5053714;28;20216;-58
2024/01/05 06:49:54;;;;;;;1.10;1.10;;;;;3.50;94655.00;;;;5053934;28;20592;-59
2024/01/05 06:52:22;;;;;;;0.80;0.80;;;;;3.30;94661.00;;;;5054219;28;20705;-60
2024/01/05 06:54:49;;;;;;;0.90;0.90;;;;;3.20;94646.00;;;;5053932;28;20271;-60
2024/01/05 06:57:17;;;;;;;0.80;0.80;;;;;3.20;94646.00;;;;5053967;28;20266;-59
2024/01/05 06:59:46;;;;;;;0.60;0.60;;;;;3.10;94650.00;;;;5053688;28;20192;-59
2024/01/05 07:02:13;;;;;;;1.03;1.00;;;;;3.10;94649.00;;;;5054333;28;20212;-59
2024/01/05 07:04:41;;;;;;;0.90;0.90;;;;;3.20;94651.00;;;;5053631;28;20702;-58
2024/01/05 07:07:09;;;;;;;3.03;0.80;;;;;3.20;94628.00;;;;5053333;28;20216;-59
2024/01/05 07:09:36;;;;;;;0.90;0.90;;;;;3.20;94638.00;;;;5053443;28;20192;-59
2024/01/05 07:12:04;;;;;;;0.80;0.80;;;;;3.20;94605.00;;;;5053499;28;20220;-58
2024/01/05 07:14:32;;;;;;;0.80;0.80;;;;;3.30;94641.00;;;;5053578;28;20274;-59
2024/01/05 07:17:00;;;;;;;0.90;0.90;;;;;3.40;94656.00;;;;5053452;28;20523;-59
2024/01/05 07:19:28;;;;;;;0.60;0.60;;;;;3.40;94651.00;;;;5053370;28;20192;-59
2024/01/05 07:21:55;;;;;;;1.10;1.07;;;;;3.50;94656.00;;;;5053448;28;20212;-59
2024/01/05 07:24:23;;;;;;;2.33;1.57;;;;;3.50;94653.00;;;;5053223;28;20196;-59
2024/01/05 07:26:50;;;;;;;0.70;0.70;;;;;3.60;94659.00;;;;5053295;28;20695;-59
2024/01/05 07:29:17;;;;;;;2.87;1.33;;;;;3.50;94649.00;;;;5053425;28;20210;-60
2024/01/05 07:31:45;;;;;;;0.60;0.60;;;;;3.40;94656.00;;;;5053083;28;20216;-59
2024/01/05 07:34:14;;;;;;;1.33;1.23;;;;;3.50;94649.00;;;;5053397;28;20516;-60
2024/01/05 07:36:43;;;;;;;0.83;0.83;;;;;3.50;94644.00;;;;5053288;28;20197;-60
2024/01/05 07:39:11;;;;;;;0.70;0.70;;;;;3.50;94649.00;;;;5053038;28;20270;-60
2024/01/05 07:41:39;;;;;;;0.70;0.70;;;;;3.40;94641.00;;;;5052905;28;20265;-60
2024/01/05 07:44:07;;;;;;;0.70;0.70;;;;;3.40;94653.00;;;;5051750;28;20203;-60
2024/01/05 07:46:41;;;;;;;0.80;0.80;;;;;3.50;94664.00;;;;5052847;28;20657;-60
2024/01/05 07:49:08;;;;;;;2.33;1.73;;;;;3.50;94651.00;;;;5052996;28;20177;-60
2024/01/05 07:51:37;;;;;;;1.17;1.17;;;;;3.60;94660.00;;;;5052913;28;20560;-60
2024/01/05 07:54:05;;;;;;;0.83;0.83;;;;;3.60;94655.00;;;;5052915;28;20694;-59
2024/01/05 07:56:38;;;;;;;0.70;0.70;;;;;3.70;94646.00;;;;5052989;28;20196;-61
2024/01/05 07:59:06;;;;;;;1.27;1.17;;;;;3.70;94640.00;;;;5056681;28;20234;-60
2024/01/05 08:01:33;;;;;;;0.70;0.70;;;;;3.70;94643.00;;;;5057020;28;20188;-60
2024/01/05 08:04:01;;;;;;;3.63;3.20;;;;;3.80;94649.00;;;;5057103;28;20639;-60
2024/01/05 08:06:28;;;;;;;6.40;2.67;;;;;3.80;94639.00;;;;5056831;28;20192;-60
2024/01/05 08:08:57;;;;;;;1.50;1.47;;;;;4.10;94632.00;;;;5056743;28;20220;-59
2024/01/05 08:11:24;;;;;;;2.10;1.50;;;;;4.30;94639.00;;;;5056642;28;20194;-60
2024/01/05 08:13:52;;;;;;;1.37;1.37;;;;;4.50;94639.00;;;;5056719;28;20203;-60
2024/01/05 08:16:20;;;;;;;1.77;1.20;;;;;4.60;94643.00;;;;5056608;28;20228;-59
2024/01/05 08:18:47;;;;;;;0.93;0.93;;;;;4.80;94637.00;;;;5056823;28;20571;-59
2024/01/05 08:21:15;;;;;;;0.63;0.63;;;;;4.80;94635.00;;;;5056658;28;20194;-59
2024/01/05 08:23:42;;;;;;;1.93;0.83;;;;;4.70;94633.00;;;;5056491;28;20216;-59
2024/01/05 08:26:11;;;;;;;1.13;0.93;;;;;4.70;94632.00;;;;5056556;28;20192;-60
2024/01/05 08:28:38;;;;;;;0.70;0.70;;;;;4.60;94633.00;;;;5056463;28;20714;-60
2024/01/05 08:31:06;;;;;;;0.80;0.80;;;;;4.40;94648.00;;;;5057399;28;20199;-59
2024/01/05 08:33:33;;;;;;;0.87;0.87;;;;;4.40;94645.00;;;;5051124;28;20230;-59
2024/01/05 08:36:00;;;;;;;0.97;0.97;;;;;4.30;94648.00;;;;5054518;28;20192;-65
2024/01/05 08:38:28;;;;;;;0.90;0.90;;;;;4.40;94644.00;;;;5053883;28;20725;-63
2024/01/05 08:40:56;;;;;;;0.70;0.70;;;;;4.50;94640.00;;;;5054975;28;20215;-64
2024/01/05 08:43:25;;;;;;;0.80;0.80;;;;;4.40;94629.00;;;;5054773;28;20244;-60
2024/01/05 08:45:52;;;;;;;0.90;0.90;;;;;4.40;94630.00;;;;5052746;28;20206;-60
2024/01/05 08:48:19;;;;;;;0.73;0.73;;;;;4.40;94638.00;;;;5054021;28;20215;-60
2024/01/05 08:50:47;;;;;;;1.37;1.27;;;;;4.40;94632.00;;;;5054828;28;20199;-60
2024/01/05 08:53:14;;;;;;;0.80;0.80;;;;;4.30;94633.00;;;;5054290;28;20223;-60
2024/01/05 08:55:42;;;;;;;1.27;1.17;;;;;4.30;94630.00;;;;5054094;28;20207;-60
2024/01/05 08:58:11;;;;;;;1.10;1.10;;;;;4.10;94628.00;;;;5054246;28;20206;-62
2024/01/05 09:00:41;;;;;;;0.70;0.70;;;;;4.40;94631.00;;;;5054063;28;20196;-60
2024/01/05 09:03:10;;;;;;;1.10;1.10;;;;;4.40;94636.00;;;;5054159;28;20626;-62
2024/01/05 09:05:38;;;;;;;0.80;0.80;;;;;4.50;94639.00;;;;5054307;28;20596;-60
2024/01/05 09:08:05;;;;;;;0.80;0.80;;;;;4.50;94638.00;;;;5053874;28;20212;-60
2024/01/05 09:10:33;;;;;;;0.70;0.70;;;;;4.40;94635.00;;;;5053284;28;20244;-60
2024/01/05 09:13:01;;;;;;;1.33;1.27;;;;;4.40;94639.00;;;;5053216;28;20579;-59
2024/01/05 09:15:28;;;;;;;1.03;1.03;;;;;4.50;94631.00;;;;5053787;28;20642;-60
2024/01/05 09:17:57;;;;;;;0.70;0.70;;;;;4.70;94635.00;;;;5053930;28;20192;-60
2024/01/05 09:20:25;;;;;;;3.60;1.43;;;;;4.80;94635.00;;;;5052440;28;20202;-60
2024/01/05 09:22:52;;;;;;;0.80;0.80;;;;;4.80;94635.00;;;;5054305;28;20223;-60
2024/01/05 09:25:20;;;;;;;0.80;0.80;;;;;4.80;94649.00;;;;5053351;28;20200;-59
2024/01/05 09:27:47;;;;;;;0.90;0.90;;;;;4.70;94647.00;;;;5054011;28;20226;-60
2024/01/05 09:30:15;;;;;;;0.90;0.90;;;;;4.80;94648.00;;;;5053386;28;20275;-59
2024/01/05 09:32:42;;;;;;;1.10;1.10;;;;;4.90;94653.00;;;;5053741;28;20310;-59
2024/01/05 09:35:11;;;;;;;0.80;0.80;;;;;5.10;94664.00;;;;5052165;28;20199;-60
2024/01/05 09:37:39;;;;;;;0.87;0.87;;;;;5.30;94662.00;;;;5053925;28;20192;-59
2024/01/05 09:40:10;;;;;;;1.00;1.00;;;;;5.30;94671.00;;;;5053447;28;20237;-59
2024/01/05 09:42:40;;;;;;;1.50;1.47;;;;;5.50;94666.00;;;;5052047;28;20273;-59
2024/01/05 09:45:11;;;;;;;1.90;1.30;;;;;5.60;94666.00;;;;5053599;28;20209;-59
2024/01/05 09:47:40;;;;;;;1.40;1.23;;;;;5.70;94673.00;;;;5053164;28;20204;-59
2024/01/05 09:50:12;;;;;;;0.87;0.87;;;;;5.70;94670.00;;;;5052998;28;20443;-59
2024/01/05 09:52:39;;;;;;;0.60;0.60;;;;;5.70;94669.00;;;;5053587;28;20229;-59
2024/01/05 09:55:08;;;;;;;0.77;0.77;;;;;5.80;94667.00;;;;5053648;28;20206;-58
2024/01/05 09:57:36;;;;;;;0.60;0.60;;;;;5.50;94670.00;;;;5049273;28;20200;-58
2024/01/05 10:00:04;;;;;;;0.70;0.70;;;;;5.40;94679.00;;;;5048548;28;20211;-58
2024/01/05 10:02:37;;;;;;;0.90;0.90;;;;;5.40;94672.00;;;;5053472;28;20250;-58
2024/01/05 10:05:05;;;;;;;0.57;0.57;;;;;5.30;94679.00;;;;5052958;28;20200;-58
2024/01/05 10:07:42;;;;;;;2.23;0.87;;;;;5.60;94667.00;;;;5052885;28;20252;-58
2024/01/05 10:10:11;;;;;;;1.40;1.33;;;;;5.50;94683.00;;;;5052398;28;20195;-58
2024/01/05 10:12:38;;;;;;;1.00;1.00;;;;;5.40;94681.00;;;;5052982;28;20234;-58
2024/01/05 10:15:06;;;;;;;0.70;0.70;;;;;5.50;94675.00;;;;5051470;28;20200;-58
2024/01/05 10:17:34;;;;;;;0.60;0.60;;;;;5.40;94676.00;;;;5053095;28;20195;-60
2024/01/05 10:20:17;;;;;;;1.20;1.10;;;;;5.30;94669.00;;;;5052408;28;20211;-60
2024/01/05 10:22:47;;;;;;;0.90;0.90;;;;;5.50;94668.00;;;;5052511;28;20222;-62
2024/01/05 10:25:21;;;;;;;0.93;0.93;;;;;5.60;94658.00;;;;5052768;28;20195;-58
2024/01/05 10:27:50;;;;;;;0.73;0.73;;;;;5.70;94664.00;;;;5048005;28;20223;-60
2024/01/05 10:30:28;;;;;;;1.00;1.00;;;;;5.80;94661.00;;;;5052706;28;20540;-59
2024/01/05 10:33:16;;;;;;;1.87;1.17;;;;;6.00;94655.00;;;;5052594;28;20219;-61
2024/01/05 10:35:43;;;;;;;0.60;0.60;;;;;6.20;94656.00;;;;5051532;28;20186;-60
2024/01/05 10:38:14;;;;;;;0.90;0.90;;;;;6.40;94649.00;;;;5052440;28;20195;-60
2024/01/05 10:40:42;;;;;;;0.70;0.70;;;;;6.60;94644.00;;;;5052171;28;20199;-60
2024/01/05 10:43:11;;;;;;;1.00;1.00;;;;;6.60;94645.00;;;;5052439;28;20313;-60
2024/01/05 10:45:40;;;;;;;6.03;1.90;;;;;6.70;94637.00;;;;5051832;28;20211;-58
2024/01/05 10:48:10;;;;;;;2.03;1.07;;;;;6.80;94641.00;;;;5052180;28;20211;-60
2024/01/05 10:50:43;;;;;;;0.70;0.70;;;;;6.80;94641.00;;;;5051771;28;20610;-60
2024/01/05 10:53:13;;;;;;;0.93;0.93;;;;;6.80;94645.00;;;;5052553;28;20232;-59
2024/01/05 10:55:42;;;;;;;1.00;1.00;;;;;6.90;94642.00;;;;5050697;28;20200;-59
2024/01/05 10:58:09;;;;;;;0.60;0.60;;;;;6.80;94632.00;;;;5052361;28;20192;-59
2024/01/05 11:00:39;;;;;;;0.70;0.70;;;;;6.80;94631.00;;;;5052167;28;20223;-59
2024/01/05 11:03:11;;;;;;;1.83;1.20;;;;;6.70;94618.00;;;;5050370;28;20599;-59
2024/01/05 11:05:42;;;;;;;0.70;0.70;;;;;6.80;94631.00;;;;5052145;28;20203;-59
2024/01/05 11:08:23;;;;;;;0.80;0.80;;;;;6.80;94620.00;;;;5047742;28;20216;-59
2024/01/05 11:11:02;;;;;;;1.30;1.17;;;;;6.70;94631.00;;;;5048724;28;20195;-59
2024/01/05 11:14:15;;;;;;;0.80;0.80;;;;;6.80;94625.00;;;;5051647;28;20302;-58
2024/01/05 11:17:24;;;;;;;0.90;0.90;;;;;6.90;94632.00;;;;5042185;28;20207;-58
2024/01/05 11:20:14;;;;;;;0.83;0.83;;;;;7.10;94633.00;;;;5051620;28;20632;-59
2024/01/05 11:22:53;;;;;;;0.60;0.60;;;;;7.00;94637.00;;;;5050273;28;20210;-60
2024/01/05 11:25:22;;;;;;;1.27;1.13;;;;;7.00;94640.00;;;;5052182;28;20196;-60
2024/01/05 11:27:50;;;;;;;0.60;0.60;;;;;7.00;94635.00;;;;5050965;28;20268;-60
2024/01/05 11:30:40;;;;;;;1.53;1.00;;;;;7.00;94626.00;;;;5055452;28;20221;-59
2024/01/05 11:33:07;;;;;;;0.90;0.90;;;;;7.00;94625.00;;;;5051022;28;20273;-58
2024/01/05 11:35:44;;;;;;;1.37;1.27;;;;;7.00;94623.00;;;;5051547;28;20200;-60
2024/01/05 11:38:27;;;;;;;0.70;0.70;;;;;7.20;94619.00;;;;5051103;28;20271;-64
2024/01/05 11:40:56;;;;;;;4.67;1.33;;;;;7.20;94621.00;;;;5049706;28;20220;-63
2024/01/05 11:43:36;;;;;;;2.83;1.43;;;;;7.40;94611.00;;;;5050876;28;20259;-63
2024/01/05 11:46:04;;;;;;;1.17;1.17;;;;;7.30;94613.00;;;;5050018;28;20203;-62
2024/01/05 11:48:51;;;;;;;0.60;0.60;;;;;7.20;94614.00;;;;5050827;28;20218;-60
2024/01/05 11:51:19;;;;;;;0.90;0.90;;;;;7.20;94607.00;;;;5051160;28;20546;-60
2024/01/05 11:53:49;;;;;;;1.23;1.20;;;;;7.20;94618.00;;;;5049323;28;20196;-59
2024/01/05 11:56:21;;;;;;;1.10;1.10;;;;;7.30;94626.00;;;;5051192;28;20274;-59
2024/01/05 11:58:49;;;;;;;1.33;1.33;;;;;7.30;94622.00;;;;5050747;28;20541;-59
2024/01/05 12:01:19;;;;;;;0.83;0.83;;;;;7.40;94618.00;;;;5051170;28;20253;-60
2024/01/05 12:03:47;;;;;;;1.10;1.10;;;;;7.30;94620.00;;;;5051006;28;20192;-60
2024/01/05 12:06:15;;;;;;;1.80;1.47;;;;;7.40;94618.00;;;;5051066;28;20202;-59
2024/01/05 12:08:42;;;;;;;0.77;0.77;;;;;7.30;94621.00;;;;5048616;28;20255;-59
2024/01/05 12:11:11;;;;;;;0.80;0.80;;;;;7.10;94625.00;;;;5051425;28;20200;-60
2024/01/05 12:13:40;;;;;;;0.83;0.83;;;;;7.00;94613.00;;;;5050643;28;20220;-60
2024/01/05 12:16:09;;;;;;;0.70;0.70;;;;;7.20;94615.00;;;;5051191;28;20203;-60
2024/01/05 12:18:45;;;;;;;0.60;0.60;;;;;7.00;94615.00;;;;5050766;28;20299;-60
2024/01/05 12:21:14;;;;;;;0.60;0.60;;;;;7.00;94613.00;;;;5050232;28;20196;-59
2024/01/05 12:23:51;;;;;;;1.17;1.17;;;;;7.00;94605.00;;;;5050749;28;20215;-59
2024/01/05 12:26:19;;;;;;;0.80;0.80;;;;;7.20;94603.00;;;;5050409;28;20291;-60
2024/01/05 12:28:49;;;;;;;0.67;0.67;;;;;7.10;94601.00;;;;5050214;28;20690;-59
2024/01/05 12:31:17;;;;;;;1.27;1.20;;;;;7.40;94597.00;;;;5051278;28;20274;-59
2024/01/05 12:33:46;;;;;;;0.90;0.87;;;;;7.30;94593.00;;;;5049565;28;20224;-60